Time;durP1;ratioP1;P1;durP2;ratioP2;P2;SDS_P1;SDS_P2;PMS_P1;PMS_P2;Temp;Humidity;BMP_temperature;BMP_pressure;BME280_temperature;BME280_humidity;BME280_pressure;Samples;Min_cycle;Max_cycle;Signal;HPM_P1;HPM_P2
2023/07/03 00:00:43;;;;;;;4.53;1.92;;;25.00;39.80;;;;;;5042762;28;20035;-61
2023/07/03 00:03:13;;;;;;;6.32;2.08;;;25.00;39.80;;;;;;5045379;28;20155;-62
2023/07/03 00:05:44;;;;;;;6.25;2.15;;;25.00;39.90;;;;;;5039629;28;20029;-62
2023/07/03 00:08:15;;;;;;;4.07;1.88;;;24.90;39.80;;;;;;5041946;28;20041;-61
2023/07/03 00:10:41;;;;;;;4.63;2.15;;;24.90;39.80;;;;;;5046186;28;20470;-60
2023/07/03 00:13:08;;;;;;;5.45;2.42;;;24.90;39.80;;;;;;5047182;28;20025;-62
2023/07/03 00:15:34;;;;;;;6.20;2.03;;;24.90;39.90;;;;;;5043326;28;20420;-61
2023/07/03 00:17:59;;;;;;;5.40;2.13;;;24.90;39.90;;;;;;5045270;28;20059;-60
2023/07/03 00:20:27;;;;;;;5.07;1.92;;;24.90;39.90;;;;;;5011110;28;20018;-61
2023/07/03 00:22:55;;;;;;;4.18;2.00;;;24.90;39.90;;;;;;5040357;28;20368;-62
2023/07/03 00:25:22;;;;;;;4.63;2.10;;;24.90;39.90;;;;;;5041809;28;20443;-61
2023/07/03 00:27:48;;;;;;;3.70;1.85;;;24.90;39.90;;;;;;5041485;28;20047;-61
2023/07/03 00:30:16;;;;;;;3.80;2.00;;;24.90;39.90;;;;;;5044400;28;20037;-61
2023/07/03 00:32:42;;;;;;;6.20;2.22;;;24.90;39.90;;;;;;5028257;28;20049;-63
2023/07/03 00:35:09;;;;;;;5.38;2.08;;;24.90;39.90;;;;;;5045982;28;20077;-60
2023/07/03 00:37:34;;;;;;;4.97;2.30;;;24.90;39.90;;;;;;5022315;28;20029;-63
2023/07/03 00:40:01;;;;;;;4.03;1.80;;;24.90;39.90;;;;;;5046541;28;20115;-62
2023/07/03 00:42:29;;;;;;;4.85;2.13;;;24.90;39.90;;;;;;5044404;28;20068;-62
2023/07/03 00:44:55;;;;;;;6.70;2.10;;;24.90;39.80;;;;;;5026877;28;20051;-62
2023/07/03 00:47:23;;;;;;;5.13;2.00;;;24.90;39.90;;;;;;5027244;28;20037;-61
2023/07/03 00:49:50;;;;;;;5.32;1.98;;;24.90;39.80;;;;;;5041904;28;20130;-62
2023/07/03 00:52:17;;;;;;;3.97;1.70;;;24.80;39.80;;;;;;5024911;28;20446;-62
2023/07/03 00:54:43;;;;;;;3.85;1.77;;;24.80;39.80;;;;;;5047027;28;20114;-63
2023/07/03 00:57:13;;;;;;;4.50;1.92;;;24.80;39.80;;;;;;5023610;28;20124;-63
2023/07/03 00:59:39;;;;;;;6.90;2.40;;;24.80;39.80;;;;;;5027680;28;20043;-60
2023/07/03 01:02:18;;;;;;;4.07;1.83;;;24.80;39.80;;;;;;5044401;28;20106;-61
2023/07/03 01:04:46;;;;;;;5.03;2.05;;;24.80;39.80;;;;;;5045984;28;20146;-62
2023/07/03 01:07:18;;;;;;;4.78;1.83;;;24.80;39.80;;;;;;5043783;28;20029;-61
2023/07/03 01:09:49;;;;;;;5.20;2.10;;;24.80;39.80;;;;;;5043080;28;20029;-60
2023/07/03 01:12:20;;;;;;;4.03;1.58;;;24.80;39.80;;;;;;5023211;28;20058;-63
2023/07/03 01:14:48;;;;;;;4.55;1.98;;;24.80;39.80;;;;;;5043784;28;20029;-62
2023/07/03 01:17:15;;;;;;;5.03;1.75;;;24.80;39.70;;;;;;5025308;28;20071;-60
2023/07/03 01:19:44;;;;;;;3.95;1.67;;;24.80;39.70;;;;;;5043440;28;20075;-59
2023/07/03 01:22:20;;;;;;;4.10;1.77;;;24.80;39.80;;;;;;5024240;28;20048;-60
2023/07/03 01:24:56;;;;;;;4.30;2.08;;;24.80;39.80;;;;;;5027546;28;20081;-62
2023/07/03 01:27:24;;;;;;;;;;;24.70;39.70;;;;;;5024485;28;20060;-62
2023/07/03 01:29:51;;;;;;;5.38;1.67;;;24.80;39.70;;;;;;5021438;28;19909;-60
2023/07/03 01:32:24;;;;;;;3.90;1.67;;;24.70;39.70;;;;;;5042075;28;20048;-62
2023/07/03 01:34:53;;;;;;;5.15;1.95;;;24.70;39.60;;;;;;5040597;28;20083;-62
2023/07/03 01:37:23;;;;;;;4.47;2.10;;;24.70;39.60;;;;;;5027556;28;20021;-63
2023/07/03 01:39:51;;;;;;;4.50;1.60;;;24.70;39.60;;;;;;5038687;28;20083;-61
2023/07/03 01:42:19;;;;;;;4.20;1.70;;;24.70;39.60;;;;;;5028988;28;20107;-61
2023/07/03 01:44:45;;;;;;;5.18;2.00;;;24.70;39.60;;;;;;5048438;28;20110;-60
2023/07/03 01:47:13;;;;;;;5.57;2.33;;;24.70;39.60;;;;;;5030316;28;20041;-62
2023/07/03 01:49:39;;;;;;;4.28;1.92;;;24.70;39.60;;;;;;5026963;28;20064;-62
2023/07/03 01:52:16;;;;;;;4.82;1.83;;;24.70;39.60;;;;;;5045248;28;20088;-62
2023/07/03 01:55:04;;;;;;;5.10;1.88;;;24.70;39.60;;;;;;5023782;28;20025;-60
2023/07/03 01:57:41;;;;;;;4.00;1.67;;;24.70;39.60;;;;;;5045596;28;20245;-63
2023/07/03 02:00:12;;;;;;;4.93;1.77;;;24.70;39.60;;;;;;5025460;28;20053;-61
2023/07/03 02:02:47;;;;;;;5.65;2.10;;;24.70;39.60;;;;;;5043376;28;20036;-61
2023/07/03 02:05:27;;;;;;;5.22;2.00;;;24.70;39.60;;;;;;5048277;28;20109;-61
2023/07/03 02:07:57;;;;;;;3.97;1.60;;;24.70;39.60;;;;;;5044051;28;20428;-61
2023/07/03 02:10:23;;;;;;;5.95;2.25;;;24.70;39.60;;;;;;5045068;28;20021;-62
2023/07/03 02:12:51;;;;;;;4.72;1.90;;;24.70;39.70;;;;;;5028883;28;20100;-59
2023/07/03 02:15:21;;;;;;;5.22;1.95;;;24.70;39.70;;;;;;5028047;28;20362;-60
2023/07/03 02:17:47;;;;;;;4.35;2.30;;;24.70;39.70;;;;;;5029210;28;20033;-62
2023/07/03 02:20:14;;;;;;;5.40;2.15;;;24.60;39.60;;;;;;5029472;28;20029;-60
2023/07/03 02:22:41;;;;;;;5.07;1.70;;;24.60;39.60;;;;;;5029448;28;20029;-61
2023/07/03 02:25:12;;;;;;;4.93;1.83;;;24.70;39.70;;;;;;5026951;28;20761;-62
2023/07/03 02:27:38;;;;;;;4.57;1.80;;;24.60;39.70;;;;;;5032508;28;20109;-62
2023/07/03 02:30:05;;;;;;;5.07;2.22;;;24.60;39.70;;;;;;5043749;28;20035;-59
2023/07/03 02:32:39;;;;;;;4.65;1.90;;;24.60;39.70;;;;;;5029328;28;20045;-61
2023/07/03 02:35:07;;;;;;;3.58;1.90;;;24.60;39.70;;;;;;5028296;28;20033;-61
2023/07/03 02:37:33;;;;;;;3.67;1.70;;;24.60;39.70;;;;;;5031569;28;20453;-60
2023/07/03 02:40:01;;;;;;;5.00;1.90;;;24.60;39.70;;;;;;5042986;28;20117;-62
2023/07/03 02:42:27;;;;;;;5.32;1.95;;;24.60;39.80;;;;;;5046283;28;20040;-62
2023/07/03 02:44:53;;;;;;;5.40;1.70;;;24.60;39.80;;;;;;5026647;28;20143;-62
2023/07/03 02:47:19;;;;;;;5.18;2.03;;;24.60;39.80;;;;;;5024233;28;20043;-61
2023/07/03 02:49:45;;;;;;;4.20;1.85;;;24.60;39.80;;;;;;5024967;28;20141;-60
2023/07/03 02:52:12;;;;;;;5.00;2.00;;;24.60;39.80;;;;;;5022270;28;20025;-61
2023/07/03 02:54:38;;;;;;;4.82;2.10;;;24.60;39.90;;;;;;5045266;28;20118;-61
2023/07/03 02:57:05;;;;;;;4.60;2.38;;;24.60;39.90;;;;;;5027592;28;20028;-61
2023/07/03 02:59:32;;;;;;;3.42;1.70;;;24.60;39.90;;;;;;5029550;28;20059;-60
2023/07/03 03:01:58;;;;;;;5.75;2.00;;;24.50;39.90;;;;;;5027110;28;20036;-62
2023/07/03 03:04:26;;;;;;;5.78;2.40;;;24.60;40.00;;;;;;5019321;28;20029;-61
2023/07/03 03:06:53;;;;;;;5.28;2.13;;;24.60;40.10;;;;;;5026499;28;20037;-64
2023/07/03 03:09:19;;;;;;;6.18;2.03;;;24.60;40.10;;;;;;5030175;28;20021;-61
2023/07/03 03:11:45;;;;;;;4.65;1.70;;;24.60;40.20;;;;;;5024722;28;20746;-61
2023/07/03 03:14:12;;;;;;;4.38;2.10;;;24.60;40.20;;;;;;5044105;28;20025;-64
2023/07/03 03:16:38;;;;;;;4.60;1.83;;;24.50;40.20;;;;;;5041574;28;20025;-64
2023/07/03 03:19:04;;;;;;;5.68;1.90;;;24.50;40.20;;;;;;5031659;28;20028;-61
2023/07/03 03:21:30;;;;;;;4.72;1.92;;;24.50;40.30;;;;;;5046975;28;20044;-63
2023/07/03 03:23:56;;;;;;;3.70;1.90;;;24.60;40.40;;;;;;5026624;28;20047;-64
2023/07/03 03:26:22;;;;;;;4.95;1.85;;;24.50;40.40;;;;;;5020537;28;20451;-62
2023/07/03 03:28:48;;;;;;;5.07;1.90;;;24.50;40.40;;;;;;5028927;28;20040;-61
2023/07/03 03:31:13;;;;;;;6.43;2.47;;;24.50;40.50;;;;;;5027903;28;20041;-62
2023/07/03 03:33:48;;;;;;;7.03;1.95;;;24.50;40.60;;;;;;5033090;28;20029;-63
2023/07/03 03:36:15;;;;;;;5.35;2.05;;;24.50;40.60;;;;;;5026723;28;20122;-62
2023/07/03 03:38:42;;;;;;;5.40;2.33;;;24.50;40.70;;;;;;5027264;28;20032;-63
2023/07/03 03:41:08;;;;;;;5.53;2.08;;;24.50;40.80;;;;;;5009674;28;20336;-62
2023/07/03 03:43:38;;;;;;;4.60;2.03;;;24.50;40.90;;;;;;5045828;28;20025;-63
2023/07/03 03:46:04;;;;;;;4.90;2.25;;;24.50;41.00;;;;;;5022091;28;20334;-62
2023/07/03 03:48:35;;;;;;;5.47;2.10;;;24.50;41.10;;;;;;5023854;28;20127;-62
2023/07/03 03:51:03;;;;;;;4.75;2.03;;;24.50;41.10;;;;;;5008855;28;20099;-61
2023/07/03 03:53:31;;;;;;;5.32;1.80;;;24.50;41.20;;;;;;5040981;28;20033;-61
2023/07/03 03:55:57;;;;;;;6.32;2.50;;;24.50;41.30;;;;;;5026776;28;20022;-63
2023/07/03 03:58:23;;;;;;;5.72;2.30;;;24.40;41.40;;;;;;5022017;28;20034;-61
2023/07/03 04:00:52;;;;;;;5.90;2.05;;;24.40;41.50;;;;;;5026704;28;20054;-61
2023/07/03 04:03:19;;;;;;;5.68;2.35;;;24.50;41.60;;;;;;5022279;28;20113;-59
2023/07/03 04:05:45;;;;;;;5.70;2.10;;;24.50;41.60;;;;;;5025447;28;20045;-62
2023/07/03 04:08:11;;;;;;;6.10;2.20;;;24.50;41.70;;;;;;5021959;28;20179;-61
2023/07/03 04:10:38;;;;;;;6.97;2.50;;;24.50;41.80;;;;;;5027052;28;20440;-62
2023/07/03 04:13:04;;;;;;;4.18;1.90;;;24.40;41.80;;;;;;5020808;28;20017;-62
2023/07/03 04:15:33;;;;;;;7.80;2.05;;;24.50;42.00;;;;;;5025067;28;20084;-60
2023/07/03 04:17:59;;;;;;;6.43;2.33;;;24.40;41.90;;;;;;5024862;28;20025;-61
2023/07/03 04:20:26;;;;;;;5.28;2.25;;;24.40;42.00;;;;;;5027872;28;20464;-62
2023/07/03 04:22:52;;;;;;;6.72;2.55;;;24.40;42.10;;;;;;5026561;28;20037;-60
2023/07/03 04:25:19;;;;;;;6.85;2.42;;;24.40;42.10;;;;;;5025746;28;20021;-61
2023/07/03 04:27:45;;;;;;;5.45;2.40;;;24.40;42.10;;;;;;5023744;28;21614;-61
2023/07/03 04:30:11;;;;;;;5.72;2.28;;;24.40;42.20;;;;;;5026008;28;20043;-61
2023/07/03 04:32:37;;;;;;;7.45;2.97;;;24.40;42.20;;;;;;5019897;28;20154;-61
2023/07/03 04:35:04;;;;;;;5.32;2.30;;;24.40;42.30;;;;;;5025039;28;20021;-62
2023/07/03 04:37:30;;;;;;;5.78;2.38;;;24.40;42.30;;;;;;5025226;28;20033;-61
2023/07/03 04:39:57;;;;;;;6.43;2.17;;;24.40;42.30;;;;;;5023639;28;20022;-61
2023/07/03 04:42:23;;;;;;;5.47;2.22;;;24.40;42.30;;;;;;5024406;28;20041;-63
2023/07/03 04:44:50;;;;;;;5.10;2.10;;;24.40;42.40;;;;;;5031925;28;20144;-65
2023/07/03 04:47:16;;;;;;;6.78;2.83;;;24.40;43.10;;;;;;5024826;28;20444;-61
2023/07/03 04:49:45;;;;;;;6.10;2.22;;;24.40;42.50;;;;;;5039911;28;20053;-62
2023/07/03 04:52:16;;;;;;;6.10;2.30;;;24.40;42.50;;;;;;5041637;28;20037;-62
2023/07/03 04:54:42;;;;;;;6.82;2.67;;;24.40;42.50;;;;;;5044891;28;20103;-61
2023/07/03 04:57:08;;;;;;;6.20;2.40;;;24.40;42.50;;;;;;5048726;28;20021;-61
2023/07/03 04:59:36;;;;;;;7.00;2.45;;;24.40;42.50;;;;;;5044907;28;20033;-62
2023/07/03 05:02:02;;;;;;;6.38;2.30;;;24.40;42.50;;;;;;5030288;28;20070;-61
2023/07/03 05:04:28;;;;;;;6.10;2.28;;;24.40;42.50;;;;;;5045982;28;20354;-60
2023/07/03 05:06:54;;;;;;;5.07;2.28;;;24.40;42.50;;;;;;5045824;28;20091;-60
2023/07/03 05:09:19;;;;;;;4.85;2.40;;;24.40;42.50;;;;;;5048968;28;20396;-61
2023/07/03 05:11:48;;;;;;;6.00;2.13;;;24.40;42.60;;;;;;5045997;28;20082;-63
2023/07/03 05:14:15;;;;;;;6.10;2.42;;;24.40;42.60;;;;;;5045679;28;20100;-60
2023/07/03 05:16:41;;;;;;;4.97;2.45;;;24.40;42.60;;;;;;5046260;28;20025;-61
2023/07/03 05:19:07;;;;;;;5.85;2.03;;;24.40;42.60;;;;;;5047238;28;20309;-63
2023/07/03 05:21:33;;;;;;;5.13;2.20;;;24.40;42.70;;;;;;5044226;28;20107;-61
2023/07/03 05:23:58;;;;;;;6.20;2.20;;;24.40;42.70;;;;;;5047380;28;20021;-61
2023/07/03 05:26:24;;;;;;;5.85;2.20;;;24.40;42.70;;;;;;5047079;28;20522;-61
2023/07/03 05:28:50;;;;;;;7.07;2.70;;;24.40;42.70;;;;;;5029958;28;20028;-61
2023/07/03 05:31:19;;;;;;;7.78;2.70;;;24.40;42.80;;;;;;5046739;28;20021;-61
2023/07/03 05:33:45;;;;;;;7.43;2.55;;;24.40;42.80;;;;;;5046584;28;20451;-62
2023/07/03 05:36:11;;;;;;;7.38;2.42;;;24.40;42.80;;;;;;5046354;28;20021;-60
2023/07/03 05:38:37;;;;;;;7.47;2.75;;;24.40;42.90;;;;;;5021187;28;20358;-62
2023/07/03 05:41:03;;;;;;;5.00;2.40;;;24.40;42.90;;;;;;5036762;28;20034;-61
2023/07/03 05:43:29;;;;;;;7.57;2.35;;;24.40;42.90;;;;;;5042472;28;20047;-61
2023/07/03 05:45:55;;;;;;;5.72;2.40;;;24.40;42.90;;;;;;5045070;28;20049;-62
2023/07/03 05:48:21;;;;;;;5.57;2.25;;;24.40;43.00;;;;;;5042554;28;20110;-64
2023/07/03 05:50:47;;;;;;;5.30;2.05;;;24.40;43.00;;;;;;5043441;28;20108;-62
2023/07/03 05:53:13;;;;;;;6.15;2.35;;;24.40;43.00;;;;;;5027097;28;20168;-62
2023/07/03 05:55:39;;;;;;;6.07;2.55;;;24.40;43.00;;;;;;5044748;28;20029;-62
2023/07/03 05:58:05;;;;;;;7.03;2.38;;;24.40;43.00;;;;;;5043580;28;20037;-61
2023/07/03 06:00:31;;;;;;;7.25;2.30;;;24.50;43.10;;;;;;5045672;28;20075;-63
2023/07/03 06:02:58;;;;;;;6.55;2.42;;;24.40;43.00;;;;;;5043118;28;20364;-62
2023/07/03 06:05:25;;;;;;;5.00;2.25;;;24.40;43.00;;;;;;5042368;28;20041;-64
2023/07/03 06:07:51;;;;;;;5.30;2.20;;;24.50;43.10;;;;;;5015114;28;20417;-62
2023/07/03 06:10:17;;;;;;;5.50;2.20;;;24.40;43.00;;;;;;5021768;28;20069;-62
2023/07/03 06:12:43;;;;;;;5.63;2.40;;;24.50;43.10;;;;;;5041635;28;20098;-63
2023/07/03 06:15:10;;;;;;;5.03;2.33;;;24.50;43.10;;;;;;5044482;28;20021;-63
2023/07/03 06:17:37;;;;;;;6.97;2.55;;;24.50;43.10;;;;;;5041207;28;20465;-62
2023/07/03 06:20:05;;;;;;;6.70;2.50;;;24.50;43.10;;;;;;5043619;28;20033;-63
2023/07/03 06:22:31;;;;;;;5.07;2.20;;;24.50;43.10;;;;;;5044655;28;20116;-63
2023/07/03 06:24:57;;;;;;;6.75;2.65;;;24.50;43.10;;;;;;5045764;28;20029;-62
2023/07/03 06:27:22;;;;;;;6.95;3.03;;;24.50;43.10;;;;;;5048614;28;20044;-61
2023/07/03 06:29:48;;;;;;;6.00;2.40;;;24.50;43.10;;;;;;5027985;28;20037;-60
2023/07/03 06:32:16;;;;;;;5.68;2.20;;;24.50;43.10;;;;;;5046384;28;20069;-63
2023/07/03 06:34:42;;;;;;;5.68;2.08;;;24.50;43.10;;;;;;5044221;28;20025;-62
2023/07/03 06:37:08;;;;;;;5.03;1.98;;;24.50;43.10;;;;;;5046556;28;20036;-60
2023/07/03 06:39:37;;;;;;;5.47;2.20;;;24.50;43.10;;;;;;5047138;28;20311;-61
2023/07/03 06:42:04;;;;;;;5.65;2.35;;;24.50;43.10;;;;;;5043111;28;20099;-60
2023/07/03 06:44:32;;;;;;;6.40;2.20;;;24.50;43.10;;;;;;5012335;28;20050;-61
2023/07/03 06:46:58;;;;;;;6.10;2.30;;;24.50;43.20;;;;;;5005503;28;20045;-61
2023/07/03 06:49:24;;;;;;;6.03;2.42;;;24.50;43.10;;;;;;5004546;28;20101;-61
2023/07/03 06:51:52;;;;;;;5.43;2.10;;;24.50;43.20;;;;;;5004977;28;20574;-63
2023/07/03 06:54:18;;;;;;;4.63;2.00;;;24.60;43.20;;;;;;5006523;28;20030;-62
2023/07/03 06:56:43;;;;;;;4.07;2.00;;;24.60;43.20;;;;;;5008993;28;20104;-62
2023/07/03 06:59:09;;;;;;;6.22;2.17;;;24.60;43.20;;;;;;5007909;28;20042;-61
2023/07/03 07:01:36;;;;;;;7.32;2.47;;;24.60;43.20;;;;;;5007986;28;20077;-61
2023/07/03 07:04:02;;;;;;;5.65;2.28;;;24.60;43.10;;;;;;5008673;28;20073;-60
2023/07/03 07:06:32;;;;;;;8.23;2.78;;;24.60;43.10;;;;;;5005328;28;20026;-60
2023/07/03 07:08:59;;;;;;;5.13;2.08;;;24.60;43.10;;;;;;5007314;28;20074;-61
2023/07/03 07:11:29;;;;;;;6.78;2.08;;;24.60;43.10;;;;;;5009604;28;20037;-61
2023/07/03 07:13:57;;;;;;;7.78;2.50;;;24.60;43.10;;;;;;5005278;28;20433;-61
2023/07/03 07:16:36;;;;;;;4.43;2.03;;;24.60;43.10;;;;;;5006920;28;20076;-60
2023/07/03 07:19:08;;;;;;;6.00;2.17;;;24.60;43.10;;;;;;5007319;28;20074;-61
2023/07/03 07:21:43;;;;;;;5.82;2.30;;;24.60;43.10;;;;;;5003203;28;20456;-62
2023/07/03 07:24:21;;;;;;;5.30;1.92;;;24.60;43.10;;;;;;5005721;28;20140;-60
2023/07/03 07:26:48;;;;;;;4.50;1.98;;;24.60;43.10;;;;;;5012348;28;20064;-63
2023/07/03 07:29:14;;;;;;;5.82;2.38;;;24.60;43.10;;;;;;5012168;28;20022;-62
2023/07/03 07:31:40;;;;;;;6.22;2.13;;;24.60;43.10;;;;;;5011494;28;20060;-60
2023/07/03 07:34:08;;;;;;;6.03;2.28;;;24.60;43.00;;;;;;5007718;28;20030;-61
2023/07/03 07:36:35;;;;;;;6.03;2.00;;;24.70;43.10;;;;;;5006011;28;20028;-62
2023/07/03 07:39:02;;;;;;;6.97;2.42;;;24.70;43.00;;;;;;5000921;28;20107;-63
2023/07/03 07:41:28;;;;;;;3.80;1.80;;;24.70;43.00;;;;;;5007199;28;20044;-60
2023/07/03 07:43:55;;;;;;;5.55;2.45;;;24.70;43.00;;;;;;5007436;28;20049;-60
2023/07/03 07:46:25;;;;;;;7.30;2.63;;;24.70;43.00;;;;;;5045235;28;20128;-63
2023/07/03 07:48:51;;;;;;;7.32;2.47;;;24.70;43.00;;;;;;5043135;28;20475;-63
2023/07/03 07:51:17;;;;;;;4.70;2.13;;;24.70;43.00;;;;;;5037146;28;20034;-61
2023/07/03 07:53:42;;;;;;;6.47;2.40;;;24.70;42.90;;;;;;5042997;28;20412;-63
2023/07/03 07:56:10;;;;;;;5.18;2.25;;;24.70;42.90;;;;;;5028193;28;20055;-63
2023/07/03 07:58:37;;;;;;;4.55;1.92;;;24.70;42.90;;;;;;5047523;28;20451;-63
2023/07/03 08:01:04;;;;;;;6.07;2.05;;;24.70;43.00;;;;;;5026358;28;20055;-60
2023/07/03 08:03:30;;;;;;;5.88;2.22;;;24.70;43.00;;;;;;5021506;28;20060;-62
2023/07/03 08:06:02;;;;;;;5.57;2.17;;;24.70;42.90;;;;;;5044194;28;20064;-63
2023/07/03 08:08:30;;;;;;;6.38;2.63;;;24.70;42.90;;;;;;5042949;28;20068;-64
2023/07/03 08:10:58;;;;;;;6.07;2.42;;;24.70;42.90;;;;;;5047436;28;20059;-63
2023/07/03 08:13:25;;;;;;;6.25;2.60;;;24.80;42.90;;;;;;5042258;28;20107;-60
2023/07/03 08:15:51;;;;;;;4.40;1.98;;;24.80;42.90;;;;;;5041961;28;20429;-62
2023/07/03 08:18:18;;;;;;;4.57;2.08;;;24.80;42.90;;;;;;5041848;28;20139;-64
2023/07/03 08:20:44;;;;;;;6.07;2.28;;;24.80;42.90;;;;;;5045849;28;20040;-64
2023/07/03 08:23:11;;;;;;;6.30;2.58;;;24.80;42.90;;;;;;5046001;28;20037;-60
2023/07/03 08:25:37;;;;;;;6.80;2.22;;;24.80;42.90;;;;;;5044257;28;20102;-60
2023/07/03 08:28:04;;;;;;;5.68;2.03;;;24.80;42.90;;;;;;5042098;28;20132;-61
2023/07/03 08:30:30;;;;;;;4.05;1.92;;;24.80;42.90;;;;;;5046351;28;20124;-61
2023/07/03 08:32:56;;;;;;;5.05;1.98;;;24.90;42.90;;;;;;5043594;28;20029;-62
2023/07/03 08:35:22;;;;;;;5.40;1.55;;;24.80;42.70;;;;;;5026542;28;20029;-60
2023/07/03 08:37:48;;;;;;;4.47;2.00;;;24.90;42.80;;;;;;5025860;28;20048;-61
2023/07/03 08:40:22;;;;;;;6.53;2.05;;;24.90;42.70;;;;;;5040078;28;20851;-63
2023/07/03 08:42:55;;;;;;;4.28;2.15;;;24.90;42.50;;;;;;5043478;28;20112;-61
2023/07/03 08:45:36;;;;;;;5.00;1.92;;;24.90;42.50;;;;;;5040623;28;20140;-62
2023/07/03 08:48:07;;;;;;;5.88;2.20;;;24.90;42.40;;;;;;5045507;28;20086;-62
2023/07/03 08:50:34;;;;;;;6.57;2.13;;;24.90;42.30;;;;;;5044744;28;20048;-61
2023/07/03 08:53:03;;;;;;;5.07;1.90;;;24.90;42.20;;;;;;5040237;28;20120;-64
2023/07/03 08:55:40;;;;;;;4.85;1.80;;;24.90;42.20;;;;;;5045002;28;20185;-59
2023/07/03 08:58:08;;;;;;;4.03;1.52;;;24.90;42.10;;;;;;5046084;28;20040;-59
2023/07/03 09:00:42;;;;;;;4.20;1.80;;;24.90;42.00;;;;;;5045112;28;20097;-59
2023/07/03 09:03:37;;;;;;;3.42;1.42;;;24.90;42.00;;;;;;5044897;28;20029;-61
2023/07/03 09:06:21;;;;;;;3.72;1.30;;;24.90;41.80;;;;;;4953121;28;20051;-60
2023/07/03 09:09:11;;;;;;;5.60;2.08;;;24.90;41.80;;;;;;5043808;28;20211;-62
2023/07/03 09:11:42;;;;;;;5.30;2.13;;;24.90;41.80;;;;;;5041857;28;20140;-60
2023/07/03 09:14:18;;;;;;;4.35;1.52;;;24.90;41.60;;;;;;5045945;28;20085;-60
2023/07/03 09:16:46;;;;;;;4.65;1.88;;;24.90;41.50;;;;;;5045885;28;20143;-60
2023/07/03 09:19:26;;;;;;;4.00;1.90;;;24.90;41.40;;;;;;5044507;28;20028;-60
2023/07/03 09:21:59;;;;;;;3.72;1.52;;;24.90;41.40;;;;;;5042826;28;20029;-62
2023/07/03 09:24:39;;;;;;;7.07;2.10;;;24.90;41.30;;;;;;5042844;28;20029;-60
2023/07/03 09:27:07;;;;;;;4.55;2.20;;;24.90;41.30;;;;;;5044789;28;20077;-64
2023/07/03 09:29:35;;;;;;;4.07;1.60;;;24.90;41.20;;;;;;5045821;28;20427;-61
2023/07/03 09:32:01;;;;;;;5.07;1.83;;;24.90;41.20;;;;;;5045447;28;20309;-61
2023/07/03 09:34:27;;;;;;;4.93;1.92;;;25.00;41.20;;;;;;5045059;28;20021;-61
2023/07/03 09:37:03;;;;;;;4.18;1.95;;;25.00;41.10;;;;;;5025520;28;20068;-59
2023/07/03 09:39:31;;;;;;;3.67;1.60;;;25.00;41.10;;;;;;5044095;28;20467;-61
2023/07/03 09:42:07;;;;;;;3.95;1.50;;;25.00;41.00;;;;;;5043200;28;20033;-62
2023/07/03 09:44:41;;;;;;;3.92;1.83;;;25.00;41.00;;;;;;5043054;28;20049;-60
2023/07/03 09:47:21;;;;;;;3.85;1.50;;;24.90;40.90;;;;;;5026221;28;20132;-62
2023/07/03 09:49:48;;;;;;;4.80;1.40;;;24.90;40.90;;;;;;5041928;28;20063;-62
2023/07/03 09:52:15;;;;;;;4.45;1.55;;;24.90;40.90;;;;;;5018572;28;20347;-61
2023/07/03 09:54:44;;;;;;;3.72;1.42;;;24.90;40.90;;;;;;5042749;28;20029;-62
2023/07/03 09:57:23;;;;;;;4.38;1.65;;;24.90;41.50;;;;;;5047837;28;20037;-60
2023/07/03 09:59:49;;;;;;;4.70;1.50;;;24.90;40.90;;;;;;5044329;28;20421;-61
2023/07/03 10:02:16;;;;;;;3.28;1.55;;;24.90;40.90;;;;;;5049086;28;20032;-60
2023/07/03 10:04:45;;;;;;;3.35;1.20;;;24.90;40.80;;;;;;5046811;28;20079;-62
2023/07/03 10:07:15;;;;;;;3.67;1.25;;;24.90;40.70;;;;;;5045626;28;20045;-62
2023/07/03 10:09:43;;;;;;;4.63;1.50;;;25.00;40.70;;;;;;5048358;28;20104;-62
2023/07/03 10:12:28;;;;;;;4.05;1.45;;;25.00;40.70;;;;;;5048967;28;20086;-62
2023/07/03 10:15:10;;;;;;;2.75;1.33;;;25.00;40.60;;;;;;5043726;28;20060;-60
2023/07/03 10:17:59;;;;;;;5.60;1.58;;;25.00;40.60;;;;;;5040121;28;20040;-62
2023/07/03 10:20:34;;;;;;;5.18;1.65;;;25.00;40.50;;;;;;5043875;28;20063;-61
2023/07/03 10:23:03;;;;;;;4.93;1.63;;;25.00;40.50;;;;;;5047519;28;20043;-60
2023/07/03 10:25:38;;;;;;;3.78;1.23;;;25.00;40.60;;;;;;5047936;28;20063;-60
2023/07/03 10:28:28;;;;;;;4.75;1.70;;;25.00;40.70;;;;;;5043170;28;20045;-62
2023/07/03 10:30:59;;;;;;;3.83;1.50;;;25.00;40.80;;;;;;5046006;28;20103;-61
2023/07/03 10:33:38;;;;;;;5.30;1.80;;;25.00;40.80;;;;;;5039912;28;20044;-62
2023/07/03 10:36:09;;;;;;;3.90;1.58;;;25.00;40.80;;;;;;5048796;28;20094;-63
2023/07/03 10:38:52;;;;;;;3.38;1.42;;;25.00;40.80;;;;;;5049720;28;20067;-60
2023/07/03 10:41:24;;;;;;;3.38;1.20;;;25.00;40.70;;;;;;5053321;28;20304;-61
2023/07/03 10:43:56;;;;;;;3.60;1.33;;;25.00;40.60;;;;;;5049847;28;20048;-60
2023/07/03 10:46:32;;;;;;;2.72;1.23;;;25.00;40.50;;;;;;5051832;28;20144;-62
2023/07/03 10:49:04;;;;;;;2.63;1.20;;;25.00;40.40;;;;;;5041527;28;20039;-63
2023/07/03 10:51:50;;;;;;;2.97;1.35;;;25.00;40.30;;;;;;5043765;28;20156;-64
2023/07/03 10:54:43;;;;;;;2.97;1.20;;;25.00;40.20;;;;;;5040542;28;20029;-61
2023/07/03 10:57:16;;;;;;;3.83;1.40;;;25.00;40.10;;;;;;5049794;28;20101;-60
2023/07/03 10:59:46;;;;;;;4.55;1.40;;;25.00;40.00;;;;;;5052090;28;20129;-62
2023/07/03 11:02:54;;;;;;;3.85;1.20;;;24.90;39.90;;;;;;5050073;28;20119;-63
2023/07/03 11:05:30;;;;;;;3.42;1.27;;;25.00;39.90;;;;;;5042642;28;20058;-62
2023/07/03 11:08:01;;;;;;;3.08;1.20;;;25.00;39.90;;;;;;5043457;28;20321;-61
2023/07/03 11:10:59;;;;;;;3.38;1.27;;;24.90;39.80;;;;;;5046592;28;20032;-60
2023/07/03 11:14:03;;;;;;;4.43;1.30;;;24.90;39.70;;;;;;5045368;28;20069;-61
2023/07/03 11:16:41;;;;;;;4.45;1.17;;;24.90;39.70;;;;;;5003433;28;20175;-61
2023/07/03 11:19:30;;;;;;;3.92;1.33;;;25.00;39.70;;;;;;5041138;28;20056;-62
2023/07/03 11:22:06;;;;;;;3.88;1.30;;;24.90;39.50;;;;;;5046815;28;20360;-61
2023/07/03 11:24:49;;;;;;;4.72;1.55;;;24.90;39.50;;;;;;5026436;28;20025;-60
2023/07/03 11:27:31;;;;;;;3.60;1.40;;;24.90;39.40;;;;;;5045467;28;20041;-62
2023/07/03 11:29:58;;;;;;;2.08;0.90;;;24.90;39.40;;;;;;5044951;28;20094;-61
2023/07/03 11:32:25;;;;;;;3.65;1.33;;;24.90;39.40;;;;;;5049209;28;20183;-61
2023/07/03 11:34:51;;;;;;;2.17;1.10;;;24.90;39.30;;;;;;5046274;28;20823;-63
2023/07/03 11:37:43;;;;;;;3.08;1.05;;;24.90;39.20;;;;;;5046157;28;20188;-63
2023/07/03 11:40:36;;;;;;;3.33;1.20;;;24.90;39.00;;;;;;5025922;28;20129;-62
2023/07/03 11:43:08;;;;;;;4.53;1.23;;;24.90;39.00;;;;;;5035608;28;20029;-62
2023/07/03 11:45:36;;;;;;;2.78;1.25;;;24.90;39.00;;;;;;5035886;28;20360;-61
2023/07/03 11:48:03;;;;;;;2.50;1.20;;;25.00;39.00;;;;;;5038565;28;20060;-61
2023/07/03 11:50:34;;;;;;;3.47;1.38;;;25.00;38.80;;;;;;5049420;28;20078;-61
2023/07/03 11:53:01;;;;;;;2.17;1.23;;;25.00;38.70;;;;;;5028706;28;20037;-63
2023/07/03 11:55:36;;;;;;;4.80;1.13;;;25.00;38.60;;;;;;5046851;28;20083;-63
2023/07/03 11:58:02;;;;;;;2.65;1.10;;;25.00;38.40;;;;;;5046272;28;20029;-60
2023/07/03 12:00:30;;;;;;;2.92;1.38;;;25.00;38.40;;;;;;5051651;28;20041;-61
2023/07/03 12:03:02;;;;;;;4.00;1.50;;;25.00;38.30;;;;;;5050017;28;20083;-62
2023/07/03 12:05:46;;;;;;;3.40;1.10;;;25.00;38.30;;;;;;5041594;28;20116;-63
2023/07/03 12:08:19;;;;;;;2.38;1.15;;;25.00;38.20;;;;;;5040746;28;20132;-60
2023/07/03 12:11:00;;;;;;;3.58;1.25;;;25.00;38.20;;;;;;5026738;28;20040;-62
2023/07/03 12:13:27;;;;;;;3.25;1.10;;;25.10;38.20;;;;;;5051439;28;20335;-62
2023/07/03 12:15:57;;;;;;;3.58;1.65;;;25.10;38.20;;;;;;5046209;28;20055;-66
2023/07/03 12:18:23;;;;;;;2.80;1.13;;;25.00;38.10;;;;;;5042575;28;20077;-62
2023/07/03 12:21:00;;;;;;;2.60;1.27;;;25.10;38.20;;;;;;5045864;28;20103;-60
2023/07/03 12:23:35;;;;;;;3.72;1.23;;;25.00;38.10;;;;;;5043571;28;20329;-62
2023/07/03 12:26:08;;;;;;;2.83;1.05;;;25.10;38.20;;;;;;5027187;28;20351;-63
2023/07/03 12:28:41;;;;;;;2.90;1.10;;;25.10;38.30;;;;;;5034002;28;20043;-63
2023/07/03 12:31:20;;;;;;;3.03;1.10;;;25.00;38.30;;;;;;5051055;28;20033;-61
2023/07/03 12:33:59;;;;;;;4.57;1.25;;;25.00;38.30;;;;;;5031723;28;20038;-62
2023/07/03 12:36:29;;;;;;;3.35;1.10;;;25.10;38.30;;;;;;5044311;28;20047;-62
2023/07/03 12:38:55;;;;;;;4.03;1.30;;;25.00;38.30;;;;;;5043107;28;20029;-64
2023/07/03 12:41:33;;;;;;;3.40;1.15;;;25.10;38.30;;;;;;5047649;28;20043;-63
2023/07/03 12:44:01;;;;;;;2.90;1.02;;;25.00;38.20;;;;;;5044903;28;20123;-64
2023/07/03 12:46:39;;;;;;;3.25;1.10;;;25.10;38.20;;;;;;5020460;28;20036;-63
2023/07/03 12:49:16;;;;;;;3.55;1.20;;;25.10;38.20;;;;;;5023858;28;20040;-62
2023/07/03 12:51:51;;;;;;;3.88;1.10;;;25.10;38.10;;;;;;5026465;28;20036;-61
2023/07/03 12:54:20;;;;;;;3.45;1.10;;;25.10;38.00;;;;;;5036795;28;20405;-61
2023/07/03 12:56:48;;;;;;;5.13;1.30;;;25.10;37.80;;;;;;5038127;28;20117;-63
2023/07/03 12:59:19;;;;;;;3.67;1.23;;;25.10;37.70;;;;;;5037284;28;20036;-61
2023/07/03 13:01:50;;;;;;;2.30;0.90;;;25.10;37.50;;;;;;5044055;28;20400;-63